Los Angeles International Airport

KLAX | LAX

Los Angeles , California , United States

Saturday, August 17th, 2019 | 22:10

Weather

KLAX 180453Z 26007KT 10SM BKN015 19/15 A2989 RMK AO2 SLP117 T01890150 $

Charts

103 Available

Gates

308 Available

Runways

4 Available

Events

No events for this airport


New event